sensor_id;sensor_type;location;lat;lon;timestamp;P1;durP1;ratioP1;P2;durP2;ratioP2
52618;SDS011;38513;53.234;6.568;2024-01-07T00:01:45;16.55;;;10.75;;
52618;SDS011;38513;53.234;6.568;2024-01-07T00:04:27;14.93;;;9.77;;
52618;SDS011;38513;53.234;6.568;2024-01-07T00:07:25;15.63;;;10.40;;
52618;SDS011;38513;53.234;6.568;2024-01-07T00:13:04;20.50;;;10.40;;
52618;SDS011;38513;53.234;6.568;2024-01-07T00:15:50;16.80;;;10.77;;
52618;SDS011;38513;53.234;6.568;2024-01-07T00:18:16;16.52;;;10.40;;
52618;SDS011;38513;53.234;6.568;2024-01-07T00:20:43;15.00;;;10.20;;
52618;SDS011;38513;53.234;6.568;2024-01-07T00:23:12;15.65;;;10.48;;
52618;SDS011;38513;53.234;6.568;2024-01-07T00:25:44;16.33;;;10.33;;
52618;SDS011;38513;53.234;6.568;2024-01-07T00:28:32;16.35;;;10.95;;
52618;SDS011;38513;53.234;6.568;2024-01-07T00:31:03;16.80;;;10.73;;
52618;SDS011;38513;53.234;6.568;2024-01-07T00:33:40;16.88;;;10.82;;
52618;SDS011;38513;53.234;6.568;2024-01-07T00:36:10;16.47;;;10.47;;
52618;SDS011;38513;53.234;6.568;2024-01-07T00:41:37;16.27;;;11.27;;
52618;SDS011;38513;53.234;6.568;2024-01-07T00:44:06;16.55;;;10.15;;
52618;SDS011;38513;53.234;6.568;2024-01-07T00:46:35;16.75;;;10.40;;
52618;SDS011;38513;53.234;6.568;2024-01-07T00:49:13;16.05;;;10.00;;
52618;SDS011;38513;53.234;6.568;2024-01-07T00:51:44;17.17;;;9.98;;
52618;SDS011;38513;53.234;6.568;2024-01-07T00:57:51;16.57;;;10.57;;
52618;SDS011;38513;53.234;6.568;2024-01-07T01:00:20;15.45;;;9.68;;
52618;SDS011;38513;53.234;6.568;2024-01-07T01:02:47;15.95;;;9.98;;
52618;SDS011;38513;53.234;6.568;2024-01-07T01:05:13;15.90;;;9.52;;
52618;SDS011;38513;53.234;6.568;2024-01-07T01:07:40;14.57;;;9.70;;
52618;SDS011;38513;53.234;6.568;2024-01-07T01:10:07;15.13;;;9.95;;
52618;SDS011;38513;53.234;6.568;2024-01-07T01:12:36;17.27;;;10.40;;
52618;SDS011;38513;53.234;6.568;2024-01-07T01:15:05;16.40;;;9.85;;
52618;SDS011;38513;53.234;6.568;2024-01-07T01:17:33;16.63;;;11.37;;
52618;SDS011;38513;53.234;6.568;2024-01-07T01:20:20;17.23;;;9.73;;
52618;SDS011;38513;53.234;6.568;2024-01-07T01:22:53;16.23;;;9.43;;
52618;SDS011;38513;53.234;6.568;2024-01-07T01:25:28;13.85;;;9.38;;
52618;SDS011;38513;53.234;6.568;2024-01-07T01:28:00;15.77;;;9.80;;
52618;SDS011;38513;53.234;6.568;2024-01-07T01:30:40;15.57;;;9.27;;
52618;SDS011;38513;53.234;6.568;2024-01-07T01:33:08;14.13;;;9.02;;
52618;SDS011;38513;53.234;6.568;2024-01-07T01:35:42;15.25;;;8.65;;
52618;SDS011;38513;53.234;6.568;2024-01-07T01:38:12;14.57;;;9.05;;
52618;SDS011;38513;53.234;6.568;2024-01-07T01:41:03;15.40;;;8.93;;
52618;SDS011;38513;53.234;6.568;2024-01-07T01:49:58;15.93;;;8.90;;
52618;SDS011;38513;53.234;6.568;2024-01-07T01:52:26;14.80;;;9.00;;
52618;SDS011;38513;53.234;6.568;2024-01-07T01:54:56;13.75;;;9.10;;
52618;SDS011;38513;53.234;6.568;2024-01-07T01:57:29;14.77;;;8.75;;
52618;SDS011;38513;53.234;6.568;2024-01-07T02:06:53;13.85;;;8.32;;
52618;SDS011;38513;53.234;6.568;2024-01-07T02:12:38;14.27;;;8.00;;
52618;SDS011;38513;53.234;6.568;2024-01-07T02:21:17;13.00;;;7.05;;
52618;SDS011;38513;53.234;6.568;2024-01-07T02:28:10;12.35;;;7.43;;
52618;SDS011;38513;53.234;6.568;2024-01-07T02:59:08;11.43;;;5.72;;
52618;SDS011;38513;53.234;6.568;2024-01-07T03:05:05;10.85;;;5.60;;
52618;SDS011;38513;53.234;6.568;2024-01-07T03:20:25;9.77;;;5.00;;
52618;SDS011;38513;53.234;6.568;2024-01-07T03:27:10;9.77;;;5.00;;
52618;SDS011;38513;53.234;6.568;2024-01-07T03:33:33;8.85;;;4.47;;
52618;SDS011;38513;53.234;6.568;2024-01-07T03:36:27;8.77;;;4.45;;
52618;SDS011;38513;53.234;6.568;2024-01-07T03:43:06;11.30;;;4.70;;
52618;SDS011;38513;53.234;6.568;2024-01-07T07:48:47;5.60;;;1.95;;
52618;SDS011;38513;53.234;6.568;2024-01-07T07:51:50;6.60;;;2.10;;
52618;SDS011;38513;53.234;6.568;2024-01-07T07:55:07;6.37;;;2.00;;
52618;SDS011;38513;53.234;6.568;2024-01-07T07:57:44;5.30;;;1.70;;
52618;SDS011;38513;53.234;6.568;2024-01-07T08:00:23;5.90;;;2.10;;
52618;SDS011;38513;53.234;6.568;2024-01-07T08:09:55;6.18;;;1.95;;
52618;SDS011;38513;53.234;6.568;2024-01-07T08:32:47;5.68;;;1.90;;
52618;SDS011;38513;53.234;6.568;2024-01-07T08:57:53;6.53;;;1.88;;
52618;SDS011;38513;53.234;6.568;2024-01-07T09:08:48;8.52;;;2.92;;
52618;SDS011;38513;53.234;6.568;2024-01-07T09:11:33;5.10;;;1.80;;
52618;SDS011;38513;53.234;6.568;2024-01-07T09:20:55;5.40;;;1.93;;
52618;SDS011;38513;53.234;6.568;2024-01-07T09:23:25;6.40;;;2.15;;
52618;SDS011;38513;53.234;6.568;2024-01-07T09:38:47;7.53;;;2.60;;
52618;SDS011;38513;53.234;6.568;2024-01-07T09:51:25;7.90;;;2.88;;
52618;SDS011;38513;53.234;6.568;2024-01-07T12:34:13;10.10;;;4.20;;
52618;SDS011;38513;53.234;6.568;2024-01-07T13:04:37;10.07;;;4.28;;
52618;SDS011;38513;53.234;6.568;2024-01-07T14:52:49;11.23;;;4.90;;
52618;SDS011;38513;53.234;6.568;2024-01-07T15:54:58;10.68;;;5.43;;
52618;SDS011;38513;53.234;6.568;2024-01-07T18:31:12;15.70;;;8.02;;
52618;SDS011;38513;53.234;6.568;2024-01-07T18:33:38;11.32;;;5.78;;
52618;SDS011;38513;53.234;6.568;2024-01-07T18:36:11;12.27;;;5.57;;
52618;SDS011;38513;53.234;6.568;2024-01-07T18:38:37;11.50;;;5.22;;
52618;SDS011;38513;53.234;6.568;2024-01-07T18:41:19;10.63;;;4.75;;
52618;SDS011;38513;53.234;6.568;2024-01-07T18:43:46;10.35;;;5.07;;
52618;SDS011;38513;53.234;6.568;2024-01-07T18:46:13;10.13;;;5.50;;
52618;SDS011;38513;53.234;6.568;2024-01-07T18:48:39;10.50;;;5.47;;
52618;SDS011;38513;53.234;6.568;2024-01-07T18:51:05;11.98;;;5.25;;
52618;SDS011;38513;53.234;6.568;2024-01-07T18:53:54;13.00;;;5.47;;
52618;SDS011;38513;53.234;6.568;2024-01-07T18:56:23;11.77;;;6.13;;
52618;SDS011;38513;53.234;6.568;2024-01-07T18:58:52;10.15;;;5.57;;
52618;SDS011;38513;53.234;6.568;2024-01-07T19:01:24;12.05;;;6.05;;
52618;SDS011;38513;53.234;6.568;2024-01-07T19:04:03;10.52;;;6.35;;
52618;SDS011;38513;53.234;6.568;2024-01-07T19:06:30;9.57;;;5.82;;
52618;SDS011;38513;53.234;6.568;2024-01-07T19:08:56;12.02;;;6.63;;
52618;SDS011;38513;53.234;6.568;2024-01-07T19:11:25;11.25;;;6.00;;
52618;SDS011;38513;53.234;6.568;2024-01-07T19:14:06;12.75;;;6.68;;
52618;SDS011;38513;53.234;6.568;2024-01-07T19:16:41;11.27;;;6.28;;
52618;SDS011;38513;53.234;6.568;2024-01-07T19:19:18;10.30;;;6.20;;
52618;SDS011;38513;53.234;6.568;2024-01-07T19:21:45;12.63;;;6.90;;
52618;SDS011;38513;53.234;6.568;2024-01-07T19:24:12;10.65;;;6.18;;
52618;SDS011;38513;53.234;6.568;2024-01-07T19:26:42;11.85;;;5.95;;
52618;SDS011;38513;53.234;6.568;2024-01-07T19:29:10;10.13;;;5.97;;
52618;SDS011;38513;53.234;6.568;2024-01-07T19:31:39;12.15;;;5.97;;
52618;SDS011;38513;53.234;6.568;2024-01-07T19:34:06;10.82;;;5.72;;
52618;SDS011;38513;53.234;6.568;2024-01-07T19:36:35;11.27;;;5.78;;
52618;SDS011;38513;53.234;6.568;2024-01-07T19:39:04;10.70;;;5.53;;
52618;SDS011;38513;53.234;6.568;2024-01-07T19:41:34;9.95;;;5.30;;
52618;SDS011;38513;53.234;6.568;2024-01-07T19:44:05;11.53;;;5.40;;
52618;SDS011;38513;53.234;6.568;2024-01-07T19:46:43;8.55;;;5.70;;
52618;SDS011;38513;53.234;6.568;2024-01-07T19:49:10;10.87;;;5.40;;
52618;SDS011;38513;53.234;6.568;2024-01-07T19:51:37;10.52;;;5.10;;
52618;SDS011;38513;53.234;6.568;2024-01-07T19:54:03;9.70;;;5.10;;
52618;SDS011;38513;53.234;6.568;2024-01-07T19:56:35;9.43;;;5.07;;
52618;SDS011;38513;53.234;6.568;2024-01-07T19:59:02;10.80;;;5.50;;
52618;SDS011;38513;53.234;6.568;2024-01-07T20:01:37;9.63;;;4.70;;
52618;SDS011;38513;53.234;6.568;2024-01-07T20:04:11;9.77;;;4.68;;
52618;SDS011;38513;53.234;6.568;2024-01-07T20:06:38;8.43;;;4.75;;
52618;SDS011;38513;53.234;6.568;2024-01-07T20:09:07;9.70;;;4.90;;
52618;SDS011;38513;53.234;6.568;2024-01-07T20:11:37;9.55;;;4.55;;
52618;SDS011;38513;53.234;6.568;2024-01-07T20:14:04;11.52;;;4.45;;
52618;SDS011;38513;53.234;6.568;2024-01-07T20:16:43;8.82;;;4.35;;
52618;SDS011;38513;53.234;6.568;2024-01-07T20:19:13;9.85;;;4.25;;
52618;SDS011;38513;53.234;6.568;2024-01-07T20:24:10;8.98;;;4.30;;
52618;SDS011;38513;53.234;6.568;2024-01-07T20:26:41;8.32;;;4.57;;
52618;SDS011;38513;53.234;6.568;2024-01-07T20:29:26;10.18;;;4.20;;
52618;SDS011;38513;53.234;6.568;2024-01-07T20:31:56;7.68;;;4.10;;
52618;SDS011;38513;53.234;6.568;2024-01-07T20:43:18;9.87;;;5.10;;
52618;SDS011;38513;53.234;6.568;2024-01-07T20:45:46;9.25;;;4.25;;
52618;SDS011;38513;53.234;6.568;2024-01-07T20:48:16;7.57;;;3.97;;
52618;SDS011;38513;53.234;6.568;2024-01-07T20:50:43;7.80;;;4.10;;
52618;SDS011;38513;53.234;6.568;2024-01-07T20:53:38;9.57;;;4.70;;
52618;SDS011;38513;53.234;6.568;2024-01-07T20:56:16;8.85;;;4.70;;
52618;SDS011;38513;53.234;6.568;2024-01-07T20:58:55;8.20;;;4.55;;
52618;SDS011;38513;53.234;6.568;2024-01-07T21:01:28;9.30;;;4.93;;
52618;SDS011;38513;53.234;6.568;2024-01-07T21:03:57;9.20;;;4.70;;
52618;SDS011;38513;53.234;6.568;2024-01-07T21:12:36;10.52;;;5.22;;
52618;SDS011;38513;53.234;6.568;2024-01-07T21:15:40;9.20;;;5.33;;
52618;SDS011;38513;53.234;6.568;2024-01-07T21:18:22;10.00;;;5.20;;
52618;SDS011;38513;53.234;6.568;2024-01-07T21:20:51;8.93;;;5.20;;
52618;SDS011;38513;53.234;6.568;2024-01-07T21:23:34;12.68;;;5.47;;
52618;SDS011;38513;53.234;6.568;2024-01-07T21:26:04;9.93;;;5.43;;
52618;SDS011;38513;53.234;6.568;2024-01-07T21:34:23;8.80;;;4.95;;
52618;SDS011;38513;53.234;6.568;2024-01-07T21:36:52;9.13;;;5.07;;
52618;SDS011;38513;53.234;6.568;2024-01-07T21:39:58;8.77;;;5.07;;
52618;SDS011;38513;53.234;6.568;2024-01-07T21:42:49;9.40;;;5.13;;
52618;SDS011;38513;53.234;6.568;2024-01-07T21:45:17;9.45;;;5.57;;
52618;SDS011;38513;53.234;6.568;2024-01-07T21:48:20;9.23;;;5.00;;
52618;SDS011;38513;53.234;6.568;2024-01-07T21:51:04;9.52;;;5.60;;
52618;SDS011;38513;53.234;6.568;2024-01-07T22:00:34;8.18;;;5.10;;
52618;SDS011;38513;53.234;6.568;2024-01-07T22:03:04;9.60;;;5.70;;
52618;SDS011;38513;53.234;6.568;2024-01-07T22:05:59;11.07;;;5.78;;
52618;SDS011;38513;53.234;6.568;2024-01-07T22:20:18;10.23;;;5.65;;
52618;SDS011;38513;53.234;6.568;2024-01-07T22:22:59;9.75;;;5.75;;
52618;SDS011;38513;53.234;6.568;2024-01-07T22:25:31;10.35;;;6.07;;
52618;SDS011;38513;53.234;6.568;2024-01-07T22:28:01;10.25;;;5.70;;
52618;SDS011;38513;53.234;6.568;2024-01-07T22:30:44;9.57;;;5.80;;
52618;SDS011;38513;53.234;6.568;2024-01-07T22:33:56;9.40;;;5.50;;
52618;SDS011;38513;53.234;6.568;2024-01-07T22:36:38;10.30;;;5.80;;
52618;SDS011;38513;53.234;6.568;2024-01-07T22:43:10;10.85;;;5.85;;
